La Palma > ESTACION METEOROLÓGICA Santo Domingo - Garafia

DATOS ACTUALES Online

Ultima actulizacion 14 minutos

20.3 ºC

Temperatura

93

Humedad (%)

985.7

Presión (mb)

6.8

Precipitación (mm)

0 N

Viento (Km/h)

DATOS DIARIOS

Temperatura últimas 24 horas (ºC)

Humedad últimas 24 horas (%)

Presión atmosférica últimas 24 horas (mb)

Precipitaciones últimas 23 horas (mm)

Viento últimas 24 horas (Km/h)

Hora Temperatura (°C) ºC Precipitación (mm) mm Presión (mb) mb Humedad (%) % Viento (Km/h) km/h
24 - 23:00 20.7 0 989 73 12.6 SE
25 - 00:00 21 0 989 71 7.74 SE
25 - 01:00 20.9 0 988 75 17.28 SE
25 - 02:00 20.8 0 988 75 21.96 SE
25 - 03:00 20.8 0 987 73 9.36 SW
25 - 04:00 20.7 0 987 75 4.68 SE
25 - 05:00 20.9 0 987 74 6.3 SE
25 - 06:00 21.2 0 987 71 3.06 S
25 - 07:00 20.8 0 987 74 6.3 SE
25 - 08:00 20.8 0 988 77 0 SE
25 - 09:00 21.7 0 989 77 15.66 N
25 - 10:00 22.3 0 989 75 9.36 N
25 - 11:00 22.3 0 989 78 12.6 N
25 - 12:00 21.9 0 989 82 0 NW
25 - 13:00 20.5 0.4 989 90 1.62 SE
25 - 14:00 20.4 3.6 988 92 0 NW
25 - 15:00 20.1 6 987 93 0 NE
25 - 16:00 21.3 6.4 986 93 0 W
25 - 17:00 21.4 6.6 986 91 4.68 SE
25 - 18:00 20.5 6.6 986 93 1.62 NW
25 - 19:00 20.3 6.8 986 94 6.3 SE
25 - 20:00 21 6.8 986 90 0 W
25 - 21:00 20.8 6.8 986 91 7.74 SW
25 - 22:00 20.3 6.8 986 93 0 N
25 - 23:00
Apalmet utiliza cookies propias y de terceros para mejorar la usabilidad y la experiencia web. Política de cookies.